Time;durP1;ratioP1;P1;durP2;ratioP2;P2;SDS_P1;SDS_P2;PMS_P1;PMS_P2;Temp;Humidity;BMP_temperature;BMP_pressure;BME280_temperature;BME280_humidity;BME280_pressure;Samples;Min_cycle;Max_cycle;Signal;HPM_P1;HPM_P2
2022/04/04 00:00:18;;;;;;;17.35;6.38;;;-0.20;94.00;;;;;;6223271;28;20080;-78
2022/04/04 00:03:20;;;;;;;8.48;4.43;;;-0.20;93.90;;;;;;6223331;28;20049;-78
2022/04/04 00:06:22;;;;;;;11.43;5.43;;;-0.20;94.00;;;;;;6222071;28;20045;-78
2022/04/04 00:09:25;;;;;;;11.07;6.82;;;-0.30;94.10;;;;;;6222894;28;20057;-78
2022/04/04 00:12:27;;;;;;;10.63;5.38;;;-0.30;94.20;;;;;;6223789;28;20133;-78
2022/04/04 00:15:29;;;;;;;14.05;6.80;;;-0.30;94.20;;;;;;6223564;28;20459;-78
2022/04/04 00:18:31;;;;;;;8.25;4.90;;;-0.40;94.20;;;;;;6222977;28;20052;-78
2022/04/04 00:21:33;;;;;;;11.13;5.78;;;-0.40;94.20;;;;;;6223592;28;20069;-79
2022/04/04 00:24:36;;;;;;;9.25;4.72;;;-0.40;94.30;;;;;;6223097;28;20083;-78
2022/04/04 00:27:38;;;;;;;11.10;5.50;;;-0.40;94.30;;;;;;6223913;28;20057;-78
2022/04/04 00:30:40;;;;;;;8.63;5.18;;;-0.40;94.20;;;;;;6218182;28;20048;-78
2022/04/04 00:33:42;;;;;;;10.32;6.07;;;-0.50;94.10;;;;;;6222198;28;20053;-78
2022/04/04 00:36:45;;;;;;;9.75;6.05;;;-0.50;94.20;;;;;;6222613;28;20173;-78
2022/04/04 00:39:48;;;;;;;11.27;5.60;;;-0.50;94.30;;;;;;6223576;28;20125;-78
2022/04/04 00:42:50;;;;;;;10.80;5.85;;;-0.60;94.20;;;;;;6222397;28;20507;-78
2022/04/04 00:45:52;;;;;;;9.75;5.43;;;-0.60;94.20;;;;;;6222596;28;20046;-78
2022/04/04 00:48:54;;;;;;;8.48;5.45;;;-0.60;94.20;;;;;;6221025;28;20073;-78
2022/04/04 00:51:56;;;;;;;6.78;4.63;;;-0.50;94.30;;;;;;6222958;28;20085;-78
2022/04/04 00:54:59;;;;;;;10.07;5.50;;;-0.60;94.50;;;;;;6222098;28;20046;-78
2022/04/04 00:58:02;;;;;;;9.60;4.70;;;-0.60;94.40;;;;;;6221784;28;20600;-78
2022/04/04 01:01:05;;;;;;;7.78;4.50;;;-0.60;94.20;;;;;;6221906;28;20046;-78
2022/04/04 01:04:08;;;;;;;8.40;5.20;;;-0.60;94.20;;;;;;6197846;28;20531;-78
2022/04/04 01:07:10;;;;;;;10.25;4.97;;;-0.60;94.20;;;;;;6197079;28;20042;-78
2022/04/04 01:10:13;;;;;;;11.65;5.63;;;-0.70;94.00;;;;;;6197921;28;20066;-78
2022/04/04 01:13:15;;;;;;;7.10;4.07;;;-0.70;94.00;;;;;;6197721;28;20050;-78
2022/04/04 01:16:17;;;;;;;11.77;5.32;;;-0.70;94.10;;;;;;6197667;28;20054;-78
2022/04/04 01:19:19;;;;;;;9.95;5.22;;;-0.70;94.00;;;;;;6200463;28;20524;-78
2022/04/04 01:22:21;;;;;;;10.73;4.82;;;-0.80;94.10;;;;;;6202527;28;20050;-78
2022/04/04 01:25:25;;;;;;;8.38;5.28;;;-0.80;94.00;;;;;;6203132;28;20057;-78
2022/04/04 01:28:28;;;;;;;12.55;5.65;;;-0.80;94.10;;;;;;6212362;28;20064;-78
2022/04/04 01:31:30;;;;;;;8.57;4.78;;;-0.80;94.10;;;;;;6222735;28;20411;-78
2022/04/04 01:34:32;;;;;;;10.55;5.72;;;-0.80;94.10;;;;;;6200057;28;20065;-77
2022/04/04 01:37:34;;;;;;;7.95;4.70;;;-0.80;94.00;;;;;;6200252;28;20431;-77
2022/04/04 01:40:37;;;;;;;10.02;5.57;;;-0.80;94.00;;;;;;6200312;28;20053;-78
2022/04/04 01:43:39;;;;;;;12.25;5.07;;;-0.90;93.90;;;;;;6230962;28;20419;-77
2022/04/04 01:46:40;;;;;;;8.25;4.82;;;-0.90;93.90;;;;;;6200310;28;20050;-78
2022/04/04 01:49:42;;;;;;;7.88;5.22;;;-0.90;93.90;;;;;;6200229;28;20389;-77
2022/04/04 01:53:25;;;;;;;10.45;4.65;;;-0.80;93.80;;;;;;6220838;28;20186;-78
2022/04/04 01:56:08;;;;;;;8.57;4.85;;;-0.90;93.70;;;;;;6219534;28;20058;-78
2022/04/04 01:59:10;;;;;;;8.27;3.97;;;-0.90;93.60;;;;;;6200266;28;20053;-77
2022/04/04 02:02:12;;;;;;;13.15;4.95;;;-0.90;93.60;;;;;;6199966;28;20053;-77
2022/04/04 02:05:14;;;;;;;8.80;4.53;;;-0.90;93.60;;;;;;6216514;28;20125;-78
2022/04/04 02:08:16;;;;;;;8.45;4.25;;;-0.90;93.60;;;;;;6248733;28;20049;-78
2022/04/04 02:11:21;;;;;;;8.93;5.32;;;-1.00;93.50;;;;;;6250245;28;20057;-77
2022/04/04 02:14:23;;;;;;;10.43;5.22;;;-1.00;93.50;;;;;;6249498;28;20136;-77
2022/04/04 02:17:24;;;;;;;7.43;4.65;;;-1.00;93.60;;;;;;6249355;28;20131;-77
2022/04/04 02:20:26;;;;;;;6.82;3.55;;;-1.00;93.60;;;;;;6249161;28;20127;-78
2022/04/04 02:23:28;;;;;;;8.00;4.57;;;-1.00;93.50;;;;;;6250093;28;20183;-77
2022/04/04 02:26:31;;;;;;;8.07;4.80;;;-1.00;93.60;;;;;;6249383;28;20045;-77
2022/04/04 02:29:33;;;;;;;8.23;4.47;;;-1.10;93.60;;;;;;6248699;28;20132;-77
2022/04/04 02:32:35;;;;;;;8.10;4.68;;;-1.10;93.70;;;;;;6249479;28;20119;-78
2022/04/04 02:35:36;;;;;;;12.02;4.88;;;-1.10;93.70;;;;;;6250019;28;20042;-78
2022/04/04 02:38:38;;;;;;;10.38;3.92;;;-1.10;93.80;;;;;;6249266;28;20403;-78
2022/04/04 02:41:41;;;;;;;9.93;4.45;;;-1.10;93.70;;;;;;6249028;28;20533;-77
2022/04/04 02:44:43;;;;;;;5.65;2.92;;;-1.10;93.50;;;;;;6249227;28;20128;-77
2022/04/04 02:47:46;;;;;;;8.75;4.88;;;-1.10;93.60;;;;;;6248867;28;20492;-78
2022/04/04 02:50:48;;;;;;;17.23;5.82;;;-1.10;93.60;;;;;;6249478;28;20050;-78
2022/04/04 02:53:50;;;;;;;17.15;4.70;;;-1.10;93.60;;;;;;6248740;28;20046;-78
2022/04/04 02:56:52;;;;;;;8.60;4.15;;;-1.10;93.60;;;;;;6249564;28;20051;-78
2022/04/04 02:59:55;;;;;;;7.05;4.32;;;-1.00;93.60;;;;;;6249978;28;20107;-78
2022/04/04 03:02:58;;;;;;;10.57;4.57;;;-1.00;93.60;;;;;;6248469;28;20129;-78
2022/04/04 03:06:00;;;;;;;9.77;4.00;;;-1.00;93.50;;;;;;6213132;28;20074;-78
2022/04/04 03:09:01;;;;;;;8.38;5.13;;;-1.00;93.60;;;;;;6224843;28;20045;-78
2022/04/04 03:12:06;;;;;;;7.18;3.97;;;-1.00;93.60;;;;;;6225645;28;20571;-78
2022/04/04 03:15:09;;;;;;;7.55;4.10;;;-1.00;93.60;;;;;;6224382;28;20464;-77
2022/04/04 03:18:11;;;;;;;6.97;4.63;;;-1.00;93.70;;;;;;6224446;28;20128;-78
2022/04/04 03:21:13;;;;;;;10.70;5.18;;;-1.00;93.70;;;;;;6225540;28;20401;-77
2022/04/04 03:24:15;;;;;;;10.13;5.05;;;-0.90;93.80;;;;;;6236564;28;20056;-77
2022/04/04 03:27:18;;;;;;;8.57;3.95;;;-0.90;93.90;;;;;;6209796;28;20054;-78
2022/04/04 03:30:21;;;;;;;10.20;5.13;;;-0.90;93.90;;;;;;6197706;28;20085;-78
2022/04/04 03:33:23;;;;;;;8.95;4.82;;;-0.80;94.00;;;;;;6200144;28;20046;-78
2022/04/04 03:36:25;;;;;;;9.95;5.78;;;-0.80;94.00;;;;;;6223446;28;20077;-78
2022/04/04 03:39:26;;;;;;;12.18;5.63;;;-0.80;94.10;;;;;;6223961;28;20055;-77
2022/04/04 03:42:30;;;;;;;11.30;6.05;;;-0.80;94.10;;;;;;6222860;28;20188;-78
2022/04/04 03:45:32;;;;;;;14.23;5.68;;;-0.70;94.20;;;;;;6223662;28;20037;-77
2022/04/04 03:48:34;;;;;;;9.10;4.90;;;-0.70;94.10;;;;;;6222291;28;20058;-78
2022/04/04 03:51:36;;;;;;;12.50;5.80;;;-0.70;94.10;;;;;;6222395;28;20519;-77
2022/04/04 03:54:37;;;;;;;8.20;4.90;;;-0.70;94.10;;;;;;6221942;28;20511;-77
2022/04/04 03:57:41;;;;;;;9.13;4.90;;;-0.70;94.20;;;;;;6221968;28;20046;-77
2022/04/04 04:00:43;;;;;;;6.35;4.20;;;-0.80;94.20;;;;;;6221718;28;20088;-77
2022/04/04 04:03:45;;;;;;;8.63;5.18;;;-0.70;94.20;;;;;;6222642;28;20057;-77
2022/04/04 04:06:47;;;;;;;9.35;5.35;;;-0.70;94.20;;;;;;6214720;28;20558;-77
2022/04/04 04:09:49;;;;;;;7.68;3.67;;;-0.80;94.10;;;;;;6221297;28;20058;-77
2022/04/04 04:12:52;;;;;;;11.10;4.43;;;-0.70;94.10;;;;;;6221646;28;20061;-78
2022/04/04 04:15:54;;;;;;;9.05;4.55;;;-0.80;94.10;;;;;;6222008;28;20060;-77
2022/04/04 04:18:57;;;;;;;7.90;4.05;;;-0.70;94.10;;;;;;6221356;28;20424;-77
2022/04/04 04:21:59;;;;;;;8.60;5.72;;;-0.70;94.00;;;;;;6222119;28;20050;-78
2022/04/04 04:25:01;;;;;;;6.82;3.97;;;-0.70;94.00;;;;;;6221999;28;20508;-77
2022/04/04 04:28:07;;;;;;;9.30;3.85;;;-0.70;94.00;;;;;;6221789;28;20056;-78
2022/04/04 04:31:09;;;;;;;6.63;3.20;;;-0.70;93.90;;;;;;6222003;28;20578;-78
2022/04/04 04:34:10;;;;;;;5.82;4.25;;;-0.80;93.80;;;;;;6222018;28;20042;-78
2022/04/04 04:37:12;;;;;;;9.00;5.10;;;-0.80;93.70;;;;;;6221769;28;20411;-78
2022/04/04 04:40:14;;;;;;;5.55;3.60;;;-0.70;93.60;;;;;;6221698;28;20053;-78
2022/04/04 04:43:17;;;;;;;9.80;5.05;;;-0.70;93.60;;;;;;6222210;28;20049;-78
2022/04/04 04:46:19;;;;;;;10.77;4.47;;;-0.70;93.60;;;;;;6221337;28;20050;-77
2022/04/04 04:49:22;;;;;;;9.38;4.80;;;-0.70;93.60;;;;;;6221325;28;20042;-78
2022/04/04 04:52:24;;;;;;;7.40;4.22;;;-0.80;93.60;;;;;;6221617;28;20046;-78
2022/04/04 04:55:27;;;;;;;13.55;5.53;;;-0.80;93.60;;;;;;6221781;28;20053;-77
2022/04/04 04:58:30;;;;;;;7.35;3.70;;;-0.70;93.70;;;;;;6221799;28;20527;-78
2022/04/04 05:01:32;;;;;;;11.85;5.90;;;-0.70;93.60;;;;;;6220923;28;20052;-78
2022/04/04 05:04:34;;;;;;;9.65;4.18;;;-0.70;93.70;;;;;;6221720;28;20523;-78
2022/04/04 05:07:35;;;;;;;7.85;5.15;;;-0.70;93.70;;;;;;6209547;28;20052;-78
2022/04/04 05:10:37;;;;;;;8.00;4.43;;;-0.70;93.70;;;;;;6220579;28;20046;-77
2022/04/04 05:13:42;;;;;;;8.63;4.80;;;-0.60;93.70;;;;;;6220491;28;20419;-77
2022/04/04 05:16:44;;;;;;;9.73;5.65;;;-0.60;93.80;;;;;;6221064;28;20041;-78
2022/04/04 05:19:46;;;;;;;9.10;5.60;;;-0.50;93.80;;;;;;6221893;28;20064;-77
2022/04/04 05:22:48;;;;;;;7.55;5.10;;;-0.50;93.60;;;;;;6220929;28;20042;-78
2022/04/04 05:25:50;;;;;;;10.80;4.30;;;-0.40;93.50;;;;;;6221331;28;20042;-77
2022/04/04 05:28:54;;;;;;;10.07;4.70;;;-0.30;93.40;;;;;;6220973;28;20077;-78
2022/04/04 05:31:56;;;;;;;7.30;4.97;;;-0.20;93.30;;;;;;6221633;28;20056;-77
2022/04/04 05:34:58;;;;;;;9.07;4.25;;;0.00;93.50;;;;;;6220732;28;20050;-78
2022/04/04 05:38:00;;;;;;;9.35;5.45;;;0.10;93.10;;;;;;6220546;28;20049;-78
2022/04/04 05:41:01;;;;;;;9.15;5.47;;;0.20;92.90;;;;;;6221346;28;20049;-78
2022/04/04 05:44:06;;;;;;;14.20;4.13;;;0.30;92.70;;;;;;6221705;28;20084;-78
2022/04/04 05:47:09;;;;;;;8.13;4.90;;;0.50;92.60;;;;;;6220957;28;20049;-77
2022/04/04 05:50:11;;;;;;;8.98;5.35;;;0.70;92.50;;;;;;6220515;28;20507;-78
2022/04/04 05:53:13;;;;;;;8.25;5.22;;;0.80;92.20;;;;;;6221014;28;20046;-78
2022/04/04 05:56:15;;;;;;;9.90;6.00;;;1.00;92.30;;;;;;6220832;28;20760;-79
2022/04/04 05:59:18;;;;;;;10.63;5.47;;;1.20;92.00;;;;;;6220892;28;20152;-78
2022/04/04 06:02:20;;;;;;;9.52;5.80;;;1.40;91.90;;;;;;6220778;28;20482;-78
2022/04/04 06:05:22;;;;;;;10.77;4.95;;;1.60;91.60;;;;;;6222319;28;20575;-78
2022/04/04 06:08:24;;;;;;;9.80;5.80;;;1.70;91.50;;;;;;6204688;28;20050;-78
2022/04/04 06:11:26;;;;;;;10.80;5.00;;;1.90;91.40;;;;;;6202075;28;20054;-78
2022/04/04 06:14:29;;;;;;;13.80;6.80;;;2.10;91.00;;;;;;6201365;28;20069;-78
2022/04/04 06:17:31;;;;;;;8.80;5.53;;;2.30;90.80;;;;;;6201598;28;20069;-79
2022/04/04 06:20:32;;;;;;;12.27;6.32;;;2.40;90.70;;;;;;6201404;28;20184;-78
2022/04/04 06:23:34;;;;;;;8.20;4.90;;;2.60;90.40;;;;;;6202440;28;20056;-79
2022/04/04 06:26:36;;;;;;;9.18;5.65;;;2.80;90.10;;;;;;6201231;28;20527;-79
2022/04/04 06:29:39;;;;;;;10.43;6.15;;;2.90;89.30;;;;;;6201474;28;20061;-80
2022/04/04 06:32:44;;;;;;;20.40;7.25;;;3.10;89.20;;;;;;6201507;28;20038;-78
2022/04/04 06:35:47;;;;;;;7.85;4.82;;;3.40;87.90;;;;;;6202065;28;20578;-78
2022/04/04 06:38:50;;;;;;;11.30;6.47;;;3.60;87.40;;;;;;6200818;28;20061;-79
2022/04/04 06:41:51;;;;;;;9.85;6.72;;;3.80;86.30;;;;;;6200788;28;20054;-79
2022/04/04 06:44:57;;;;;;;8.27;5.43;;;4.10;85.70;;;;;;6200862;28;20042;-79
2022/04/04 06:47:59;;;;;;;8.15;4.82;;;4.40;84.20;;;;;;6201667;28;20137;-79
2022/04/04 06:51:01;;;;;;;9.15;4.95;;;4.50;82.50;;;;;;6201996;28;20046;-79
2022/04/04 06:54:05;;;;;;;8.23;4.55;;;4.60;81.30;;;;;;6207562;28;20078;-79
2022/04/04 06:57:07;;;;;;;7.50;4.70;;;4.60;81.40;;;;;;6211369;28;20047;-79
2022/04/04 07:00:12;;;;;;;7.38;3.97;;;4.60;79.60;;;;;;6203308;28;20058;-79
2022/04/04 07:03:13;;;;;;;11.27;3.88;;;4.70;80.10;;;;;;6202471;28;20050;-79
2022/04/04 07:06:16;;;;;;;7.88;3.83;;;4.70;78.90;;;;;;6202122;28;20057;-79
2022/04/04 07:09:17;;;;;;;10.40;3.85;;;4.90;78.40;;;;;;6220244;28;20050;-80
2022/04/04 07:12:19;;;;;;;7.10;4.75;;;5.10;78.10;;;;;;6225182;28;20046;-79
2022/04/04 07:15:23;;;;;;;8.20;5.15;;;5.50;76.20;;;;;;6225621;28;20541;-79
2022/04/04 07:18:24;;;;;;;7.90;4.32;;;6.00;74.20;;;;;;6224144;28;20517;-79
2022/04/04 07:21:28;;;;;;;6.72;4.63;;;6.70;73.70;;;;;;6224847;28;20041;-79
2022/04/04 07:24:30;;;;;;;10.95;4.88;;;8.20;71.20;;;;;;6224455;28;20053;-79
2022/04/04 07:27:32;;;;;;;14.27;5.20;;;10.40;64.20;;;;;;6194534;28;20054;-78
2022/04/04 07:30:36;;;;;;;13.40;4.38;;;12.20;56.60;;;;;;6195790;28;20130;-81
2022/04/04 07:33:37;;;;;;;7.65;4.20;;;13.80;51.90;;;;;;6208375;28;20060;-79
2022/04/04 07:36:40;;;;;;;6.40;4.43;;;15.00;47.40;;;;;;6224113;28;20042;-80
2022/04/04 07:39:42;;;;;;;8.15;4.78;;;15.90;42.90;;;;;;6213087;28;20061;-79
2022/04/04 07:42:46;;;;;;;6.47;4.32;;;16.10;42.50;;;;;;6222041;28;20038;-80
2022/04/04 07:45:49;;;;;;;11.52;4.60;;;16.10;42.00;;;;;;6220059;28;20118;-79
2022/04/04 07:48:54;;;;;;;10.77;5.10;;;16.20;41.50;;;;;;6234971;28;20044;-78
2022/04/04 07:51:56;;;;;;;7.57;4.50;;;16.50;41.60;;;;;;6222804;28;20108;-78
2022/04/04 07:54:58;;;;;;;8.13;4.45;;;16.90;40.60;;;;;;6222153;28;20528;-80
2022/04/04 07:58:00;;;;;;;8.85;6.30;;;16.70;38.70;;;;;;6223449;28;20060;-76
2022/04/04 08:01:03;;;;;;;5.40;4.00;;;15.60;40.20;;;;;;6222501;28;20073;-78
2022/04/04 08:04:05;;;;;;;7.07;5.07;;;14.60;42.10;;;;;;6224423;28;20046;-80
2022/04/04 08:07:07;;;;;;;5.32;4.03;;;13.70;43.20;;;;;;6223814;28;20042;-80
2022/04/04 08:10:08;;;;;;;8.27;4.07;;;13.10;46.30;;;;;;6203608;28;20530;-78
2022/04/04 08:13:10;;;;;;;7.85;4.85;;;13.30;46.80;;;;;;6227867;28;20049;-77
2022/04/04 08:16:13;;;;;;;6.35;3.67;;;13.30;45.60;;;;;;6248583;28;20055;-80
2022/04/04 08:19:15;;;;;;;7.05;3.92;;;13.30;46.10;;;;;;6247729;28;20418;-79
2022/04/04 08:22:17;;;;;;;5.15;3.67;;;13.60;45.50;;;;;;6247751;28;20637;-79
2022/04/04 08:25:19;;;;;;;5.88;3.58;;;13.90;44.90;;;;;;6247309;28;20045;-79
2022/04/04 08:28:21;;;;;;;7.25;3.63;;;14.10;40.80;;;;;;6246597;28;20045;-77
2022/04/04 08:31:24;;;;;;;6.57;3.35;;;14.40;41.30;;;;;;6246715;28;20068;-78
2022/04/04 08:34:27;;;;;;;5.10;3.30;;;14.90;39.30;;;;;;6246169;28;20055;-80
2022/04/04 08:37:29;;;;;;;8.38;3.40;;;15.20;38.90;;;;;;6245404;28;20057;-78
2022/04/04 08:40:31;;;;;;;5.55;2.80;;;15.20;37.30;;;;;;6230023;28;20077;-79
2022/04/04 08:43:37;;;;;;;6.00;2.67;;;15.30;38.30;;;;;;6242634;28;20140;-79
2022/04/04 08:46:42;;;;;;;7.13;3.42;;;15.90;37.20;;;;;;6249154;28;20041;-78
2022/04/04 08:49:45;;;;;;;5.32;3.17;;;16.20;36.50;;;;;;6246025;28;20418;-78
2022/04/04 08:52:48;;;;;;;5.45;3.35;;;16.60;36.30;;;;;;6245743;28;20041;-77
2022/04/04 08:55:49;;;;;;;4.68;2.95;;;16.90;35.50;;;;;;6246190;28;20071;-77
2022/04/04 08:58:51;;;;;;;6.93;3.40;;;17.40;35.70;;;;;;6245159;28;20411;-77
2022/04/04 09:01:56;;;;;;;6.40;2.95;;;17.90;33.90;;;;;;6246169;28;20057;-78
2022/04/04 09:05:05;;;;;;;5.15;3.15;;;18.10;33.60;;;;;;6246184;28;20045;-79
2022/04/04 09:08:08;;;;;;;5.80;3.47;;;18.20;32.70;;;;;;6245762;28;20042;-79
2022/04/04 09:11:10;;;;;;;3.58;2.95;;;17.90;32.30;;;;;;6225302;28;20053;-78
2022/04/04 09:14:11;;;;;;;7.63;2.83;;;17.60;32.60;;;;;;6237108;28;20064;-78
2022/04/04 09:17:16;;;;;;;4.93;3.53;;;17.30;32.80;;;;;;6246000;28;20046;-77
2022/04/04 09:20:18;;;;;;;5.07;3.05;;;17.60;34.00;;;;;;6245256;28;20637;-78
2022/04/04 09:23:20;;;;;;;4.57;3.20;;;18.00;32.60;;;;;;6246865;28;20049;-79
2022/04/04 09:26:31;;;;;;;6.30;2.97;;;18.00;31.70;;;;;;6245784;28;20049;-78
2022/04/04 09:29:35;;;;;;;6.30;3.60;;;17.60;32.50;;;;;;6246054;28;20049;-79
2022/04/04 09:32:39;;;;;;;4.38;2.90;;;17.50;32.30;;;;;;6246648;28;20052;-79
2022/04/04 09:35:48;;;;;;;7.18;3.20;;;17.50;32.40;;;;;;6244318;28;20419;-79
2022/04/04 09:39:03;;;;;;;6.68;3.30;;;17.80;33.00;;;;;;6244990;28;20092;-78
2022/04/04 09:42:16;;;;;;;4.00;2.72;;;17.90;31.40;;;;;;6236050;28;20136;-78
2022/04/04 09:45:18;;;;;;;5.45;2.97;;;17.30;31.70;;;;;;6249314;28;20053;-78
2022/04/04 09:48:21;;;;;;;6.82;3.55;;;16.60;32.70;;;;;;6274366;23;20056;-85
2022/04/04 09:51:38;;;;;;;6.03;3.08;;;15.90;33.90;;;;;;6263427;28;20072;-83
2022/04/04 09:54:43;;;;;;;3.83;2.75;;;15.00;35.40;;;;;;6273879;28;20092;-84
2022/04/04 09:57:51;;;;;;;4.95;3.33;;;14.30;36.90;;;;;;6256436;28;20045;-84
2022/04/04 10:00:53;;;;;;;6.28;3.22;;;13.90;38.90;;;;;;6257445;28;20069;-84
2022/04/04 10:03:57;;;;;;;4.82;2.75;;;13.60;39.40;;;;;;6257523;28;20075;-84
2022/04/04 10:07:03;;;;;;;5.25;2.85;;;13.50;39.90;;;;;;6255285;28;20521;-85
2022/04/04 10:10:06;;;;;;;5.80;3.67;;;13.30;39.10;;;;;;6250746;28;20519;-83
2022/04/04 10:13:09;;;;;;;5.20;3.03;;;13.30;39.20;;;;;;6253831;28;20396;-84
2022/04/04 10:16:12;;;;;;;4.85;3.35;;;13.30;39.30;;;;;;6256586;28;20076;-83
2022/04/04 10:19:16;;;;;;;12.32;3.20;;;13.30;39.60;;;;;;6257117;28;20037;-84
2022/04/04 10:22:20;;;;;;;5.80;3.45;;;13.30;40.30;;;;;;6257975;28;20076;-84
2022/04/04 10:25:26;;;;;;;3.55;2.75;;;13.20;40.40;;;;;;6257817;28;20061;-83
2022/04/04 10:28:29;;;;;;;5.47;3.47;;;13.30;39.90;;;;;;6256774;28;20047;-84
2022/04/04 10:31:46;;;;;;;4.85;3.42;;;13.40;40.30;;;;;;6257942;28;20049;-83
2022/04/04 10:34:49;;;;;;;4.82;2.83;;;13.70;39.30;;;;;;6257803;28;20052;-84
2022/04/04 10:37:51;;;;;;;5.07;3.10;;;13.90;37.70;;;;;;6256444;28;20042;-84
2022/04/04 10:40:55;;;;;;;4.22;2.97;;;13.80;38.00;;;;;;6255454;28;20100;-83
2022/04/04 10:43:57;;;;;;;4.68;3.65;;;13.80;37.80;;;;;;6256034;28;20053;-84
2022/04/04 10:47:02;;;;;;;4.65;3.17;;;13.80;37.40;;;;;;6254145;28;20047;-83
2022/04/04 10:50:23;;;;;;;4.07;3.00;;;13.80;37.80;;;;;;6255304;28;20049;-84
2022/04/04 10:53:41;;;;;;;5.45;3.20;;;13.80;37.50;;;;;;6255990;28;20052;-83
2022/04/04 10:56:46;;;;;;;6.53;3.40;;;13.80;38.20;;;;;;6258932;28;20045;-86
2022/04/04 10:59:48;;;;;;;6.18;3.03;;;14.00;37.60;;;;;;6256879;28;20057;-84
2022/04/04 11:02:53;;;;;;;5.47;3.15;;;13.80;37.80;;;;;;6255406;28;20045;-82
2022/04/04 11:09:22;;;;;;;5.35;3.80;;;14.20;37.50;;;;;;6252384;28;20049;-85
2022/04/04 11:12:28;;;;;;;5.90;3.22;;;14.10;38.90;;;;;;6242145;28;20054;-82
2022/04/04 11:15:43;;;;;;;4.78;3.08;;;14.30;38.40;;;;;;6252803;28;20046;-85
2022/04/04 11:18:54;;;;;;;4.22;3.45;;;14.50;37.30;;;;;;6250631;28;20410;-82
2022/04/04 11:21:59;;;;;;;5.65;3.50;;;14.50;37.80;;;;;;6251833;28;20048;-85
2022/04/04 11:25:04;;;;;;;6.32;3.22;;;14.70;37.00;;;;;;6249632;28;20049;-83
2022/04/04 11:28:06;;;;;;;4.07;2.97;;;14.60;37.20;;;;;;6252119;28;20057;-85
2022/04/04 11:31:09;;;;;;;5.05;3.83;;;14.50;37.70;;;;;;6251401;28;20041;-83
2022/04/04 11:34:14;;;;;;;6.55;3.53;;;14.60;37.10;;;;;;6252616;28;20052;-85
2022/04/04 11:37:19;;;;;;;9.45;4.47;;;14.70;37.50;;;;;;6251217;28;20046;-85
2022/04/04 11:40:25;;;;;;;4.63;3.38;;;14.60;36.90;;;;;;6229137;28;20065;-84
2022/04/04 11:43:27;;;;;;;10.57;7.75;;;14.50;37.60;;;;;;6242471;28;20053;-84
2022/04/04 11:46:29;;;;;;;20.55;12.10;;;14.40;38.70;;;;;;6250192;28;20045;-83
2022/04/04 11:49:35;;;;;;;13.90;6.97;;;14.60;38.10;;;;;;6249838;28;20045;-85
2022/04/04 11:52:48;;;;;;;19.35;9.65;;;14.60;36.90;;;;;;6250533;28;20052;-84
2022/04/04 11:55:50;;;;;;;6.28;4.30;;;14.20;37.40;;;;;;6250742;28;20056;-85
2022/04/04 11:58:54;;;;;;;4.53;2.95;;;14.30;37.10;;;;;;6250420;28;20285;-85
2022/04/04 12:01:58;;;;;;;4.25;3.30;;;14.40;35.30;;;;;;6249014;28;20056;-83
2022/04/04 12:05:02;;;;;;;4.55;3.05;;;14.30;35.20;;;;;;6249407;28;20045;-85
2022/04/04 12:08:06;;;;;;;3.83;3.00;;;14.40;36.60;;;;;;6250267;28;20574;-85
2022/04/04 12:11:09;;;;;;;5.25;3.35;;;14.70;35.70;;;;;;6250608;28;20046;-84
2022/04/04 12:14:12;;;;;;;6.38;2.67;;;14.80;35.60;;;;;;6240046;28;20052;-85
2022/04/04 12:17:14;;;;;;;4.50;3.00;;;14.80;33.70;;;;;;6250206;28;20105;-83
2022/04/04 12:20:16;;;;;;;4.07;2.63;;;14.90;32.80;;;;;;6252593;28;20048;-83
2022/04/04 12:26:40;;;;;;;6.95;2.90;;;14.70;34.20;;;;;;6250703;28;20049;-84
2022/04/04 12:29:44;;;;;;;7.68;3.58;;;14.90;34.40;;;;;;6253094;28;20056;-85
2022/04/04 12:32:45;;;;;;;3.17;2.67;;;15.10;34.20;;;;;;6253154;28;20132;-83
2022/04/04 12:35:49;;;;;;;4.82;4.07;;;15.30;33.30;;;;;;6256807;28;20410;-86
2022/04/04 12:38:58;;;;;;;7.20;5.50;;;15.20;33.30;;;;;;6252223;28;20049;-84
2022/04/04 12:42:06;;;;;;;3.33;2.53;;;15.10;33.80;;;;;;6252838;28;20065;-86
2022/04/04 12:45:08;;;;;;;4.88;3.72;;;15.10;34.10;;;;;;6254058;28;20208;-85
2022/04/04 12:48:11;;;;;;;3.80;2.72;;;15.00;34.30;;;;;;6249577;28;20113;-83
2022/04/04 12:51:26;;;;;;;3.38;2.47;;;14.80;33.30;;;;;;6249737;28;20052;-83
2022/04/04 12:54:31;;;;;;;5.15;2.78;;;14.60;33.90;;;;;;6251039;28;20060;-83
2022/04/04 12:57:35;;;;;;;5.03;2.78;;;14.70;34.50;;;;;;6261598;28;20055;-85
2022/04/04 13:00:39;;;;;;;42.90;23.83;;;14.70;33.90;;;;;;6270836;28;20045;-82
2022/04/04 13:03:53;;;;;;;13.18;6.70;;;14.70;34.50;;;;;;6264213;28;20045;-82
2022/04/04 13:06:54;;;;;;;7.70;3.72;;;14.90;34.20;;;;;;6256084;28;20051;-84
2022/04/04 13:09:58;;;;;;;3.75;2.70;;;14.80;33.90;;;;;;6251928;28;20136;-83
2022/04/04 13:13:08;;;;;;;6.30;3.53;;;14.60;33.50;;;;;;6252425;28;20183;-82
2022/04/04 13:16:28;;;;;;;6.15;3.45;;;14.30;34.10;;;;;;6237422;28;20057;-86
2022/04/04 13:19:30;;;;;;;4.80;2.90;;;14.10;34.20;;;;;;6233036;28;20057;-86
2022/04/04 13:22:32;;;;;;;5.63;2.88;;;14.00;35.30;;;;;;6232892;28;20455;-84
2022/04/04 13:25:35;;;;;;;7.40;2.75;;;14.00;35.70;;;;;;6232891;28;20129;-81
2022/04/04 13:28:38;;;;;;;4.68;3.00;;;14.10;36.40;;;;;;6231954;28;20052;-86
2022/04/04 13:31:43;;;;;;;4.53;3.13;;;13.90;35.60;;;;;;6230868;28;20505;-82
2022/04/04 13:34:46;;;;;;;4.47;2.83;;;13.60;35.80;;;;;;6239906;28;20347;-84
2022/04/04 13:37:47;;;;;;;3.70;2.90;;;13.40;36.20;;;;;;6277169;28;20050;-84
2022/04/04 13:40:51;;;;;;;5.30;3.90;;;13.30;36.40;;;;;;6275832;28;20046;-84
2022/04/04 13:43:53;;;;;;;4.03;3.03;;;13.30;36.80;;;;;;6258223;28;20059;-83
2022/04/04 13:46:56;;;;;;;6.00;3.10;;;13.20;37.50;;;;;;6257907;28;20658;-84
2022/04/04 13:49:58;;;;;;;7.65;3.13;;;13.20;38.00;;;;;;6253855;28;20095;-87
2022/04/04 13:53:00;;;;;;;8.70;4.60;;;13.10;38.10;;;;;;6257417;28;20046;-84
2022/04/04 14:00:15;;;;;;;5.93;3.78;;;12.90;39.00;;;;;;6211967;28;20045;-83
2022/04/04 14:03:18;;;;;;;;;;;12.90;39.00;;;;;;6256932;28;20106;-82
2022/04/04 14:09:54;;;;;;;5.53;4.00;;;12.80;40.40;;;;;;6252915;28;20065;-83
2022/04/04 14:13:29;;;;;;;7.55;3.63;;;13.00;40.30;;;;;;6250871;28;20223;-84
2022/04/04 14:20:30;;;;;;;5.65;3.70;;;13.00;39.90;;;;;;6206151;28;20147;-83
2022/04/04 14:23:50;;;;;;;7.18;4.28;;;12.90;39.30;;;;;;6212296;28;20160;-81
2022/04/04 14:26:59;;;;;;;4.53;3.38;;;12.80;40.30;;;;;;6226160;28;20787;-83
2022/04/04 14:30:59;;;;;;;8.65;3.63;;;12.60;41.00;;;;;;6225164;28;20062;-82
2022/04/04 15:00:28;;;;;;;8.43;4.75;;;12.60;41.70;;;;;;6211642;28;20042;-83
2022/04/04 15:03:57;;;;;;;;;;;12.50;41.50;;;;;;6198179;28;20086;-82
2022/04/04 15:10:54;;;;;;;6.03;4.20;;;12.20;41.80;;;;;;6205666;28;20133;-82
2022/04/04 15:18:21;;;;;;;5.90;3.88;;;12.00;42.90;;;;;;6199228;28;20420;-82
2022/04/04 15:21:44;;;;;;;5.50;3.50;;;12.00;43.60;;;;;;6202090;28;20046;-82
2022/04/04 15:25:27;;;;;;;5.53;3.83;;;12.00;44.20;;;;;;6195015;28;20412;-83
2022/04/04 15:35:59;;;;;;;6.07;4.05;;;11.80;44.70;;;;;;6164706;28;20129;-83
2022/04/04 15:52:10;;;;;;;8.57;4.68;;;12.10;44.40;;;;;;6202344;28;20050;-85
2022/04/04 16:06:11;;;;;;;9.77;4.75;;;11.60;46.10;;;;;;6142925;28;20062;-83
2022/04/04 16:36:25;;;;;;;6.00;3.78;;;11.20;47.60;;;;;;6228861;28;20396;-81
2022/04/04 16:39:27;;;;;;;5.88;3.63;;;11.20;48.30;;;;;;6232334;28;20105;-82
2022/04/04 16:42:30;;;;;;;5.78;3.80;;;11.10;48.10;;;;;;6220505;28;20056;-81
2022/04/04 16:45:31;;;;;;;10.65;3.92;;;11.10;48.10;;;;;;6229405;28;20435;-84
2022/04/04 16:48:34;;;;;;;5.55;3.72;;;11.10;48.40;;;;;;6228764;28;20049;-82
2022/04/04 16:51:37;;;;;;;7.82;4.45;;;11.10;48.50;;;;;;6231049;28;20511;-82
2022/04/04 16:54:39;;;;;;;6.50;3.72;;;10.90;48.90;;;;;;6229381;28;20455;-82
2022/04/04 16:57:41;;;;;;;8.30;3.88;;;11.00;49.20;;;;;;6227041;28;20041;-82
2022/04/04 17:00:43;;;;;;;4.93;3.35;;;11.00;49.30;;;;;;6229466;28;20076;-82
2022/04/04 17:03:45;;;;;;;4.82;3.55;;;10.90;49.10;;;;;;6227493;28;20072;-81
2022/04/04 17:06:48;;;;;;;5.78;4.28;;;10.90;48.80;;;;;;6226539;28;20140;-82
2022/04/04 17:09:50;;;;;;;4.38;3.70;;;10.90;49.10;;;;;;6228743;28;20107;-81
2022/04/04 17:12:52;;;;;;;8.57;3.72;;;10.90;48.50;;;;;;6220496;28;20096;-86
2022/04/04 17:15:54;;;;;;;4.90;3.17;;;10.80;48.20;;;;;;6205833;28;20207;-81
2022/04/04 17:18:56;;;;;;;4.25;2.92;;;10.80;48.30;;;;;;6216853;28;20129;-82
2022/04/04 17:21:59;;;;;;;5.15;3.80;;;10.80;47.80;;;;;;6226909;28;20045;-85
2022/04/04 17:25:01;;;;;;;7.50;3.58;;;10.80;48.10;;;;;;6228306;28;20515;-81
2022/04/04 17:28:03;;;;;;;4.63;3.05;;;10.80;47.60;;;;;;6225663;28;20061;-80
2022/04/04 17:31:04;;;;;;;5.20;3.40;;;10.80;48.00;;;;;;6224864;28;20045;-81
2022/04/04 17:34:07;;;;;;;7.72;4.15;;;10.80;48.10;;;;;;6225989;28;20065;-81
2022/04/04 17:37:10;;;;;;;3.33;2.33;;;10.70;48.20;;;;;;6225304;28;20069;-81
2022/04/04 17:40:12;;;;;;;4.18;2.72;;;10.60;47.90;;;;;;6226090;28;20046;-80
2022/04/04 17:43:14;;;;;;;5.45;3.42;;;10.60;48.70;;;;;;6227921;28;20049;-82
2022/04/04 17:46:15;;;;;;;8.77;3.80;;;10.70;49.30;;;;;;6229117;28;20180;-82